This is the latest recevied weather packets stored in our database for station/object VA6GSB-13. If no packets are shown the sender has not sent any weather packets the latest 10 day(s).
| Time | Temp. | Humidity | Pressure | Rain* | Wind** | Luminosity | Snow |
|---|---|---|---|---|---|---|---|
| 1787673940 | 19.44° C | 61% | 1023 hPa | 0 mm | - | 477 W/m² | - |
| 1787673864 | 18.89° C | 62% | 1023.2 hPa | 0 mm | - | 475 W/m² | - |
| 1787673641 | 18.89° C | 62% | 1023 hPa | 0 mm | - | 464 W/m² | - |
| 1787673339 | 18.89° C | 62% | 1023 hPa | 0 mm | - | 451 W/m² | - |
| 1787673041 | 18.33° C | 65% | 1023 hPa | 0 mm | - | 440 W/m² | - |
| 1787672740 | 18.33° C | 64% | 1023 hPa | 0 mm | - | 427 W/m² | - |
| 1787672664 | 18.33° C | 64% | 1023.3 hPa | 0 mm | - | 425 W/m² | - |
| 1787672439 | 18.33° C | 65% | 1023 hPa | 0 mm | - | 415 W/m² | - |
| 1787672140 | 17.78° C | 67% | 1023 hPa | 0 mm | - | 402 W/m² | - |
| 1787671840 | 17.78° C | 67% | 1023 hPa | 0 mm | - | 388 W/m² | - |
| 1787671540 | 17.22° C | 68% | 1023 hPa | 0 mm | - | 376 W/m² | - |
| 1787671464 | 17.22° C | 68% | 1023.3 hPa | 0 mm | - | 373 W/m² | - |
| 1787670940 | 16.67° C | 68% | 1023 hPa | 0 mm | - | 349 W/m² | - |
| 1787670864 | 16.67° C | 68% | 1023.3 hPa | 0 mm | - | 346 W/m² | - |
| 1787670640 | 16.67° C | 68% | 1023 hPa | 0 mm | - | 336 W/m² | - |
| 1787670341 | 16.67° C | 69% | 1023 hPa | 0 mm | - | 322 W/m² | - |
| 1787670264 | 16.67° C | 70% | 1023.3 hPa | 0 mm | - | 319 W/m² | - |
| 1787670048 | 16.67° C | 70% | 1023 hPa | 0 mm | - | 312 W/m² | - |
| 1787669964 | 16.67° C | 69% | 1023.2 hPa | 0 mm | - | 307 W/m² | - |
| 1787669663 | 16.11° C | 68% | 1023.2 hPa | 0 mm | - | 293 W/m² | - |
| 1787669364 | 16.11° C | 70% | 1023.2 hPa | 0 mm | - | 279 W/m² | - |
| 1787669063 | 15.56° C | 71% | 1023.2 hPa | 0 mm | - | 265 W/m² | - |
| 1787668763 | 15.56° C | 72% | 1023.1 hPa | 0 mm | - | 252 W/m² | - |
| 1787668539 | 15° C | 70% | 1023 hPa | 0 mm | - | 242 W/m² | - |
| 1787668464 | 15° C | 70% | 1023.1 hPa | 0 mm | - | 240 W/m² | - |
* Rain latest hour (hover to see other rain measurements)
** Current wind speed in m/s (hover to see current wind gust speed)